sensor_id;sensor_type;location;lat;lon;timestamp;P1;durP1;ratioP1;P2;durP2;ratioP2
7683;SDS011;3884;48.616;12.872;2022-07-29T00:01:44;6.87;;;5.53;;
7683;SDS011;3884;48.616;12.872;2022-07-29T00:04:11;7.30;;;5.77;;
7683;SDS011;3884;48.616;12.872;2022-07-29T00:06:39;6.57;;;6.07;;
7683;SDS011;3884;48.616;12.872;2022-07-29T00:09:06;6.37;;;5.70;;
7683;SDS011;3884;48.616;12.872;2022-07-29T00:11:33;6.63;;;6.03;;
7683;SDS011;3884;48.616;12.872;2022-07-29T00:14:00;6.77;;;6.07;;
7683;SDS011;3884;48.616;12.872;2022-07-29T00:16:28;6.43;;;5.83;;
7683;SDS011;3884;48.616;12.872;2022-07-29T00:18:55;5.90;;;5.40;;
7683;SDS011;3884;48.616;12.872;2022-07-29T00:21:22;6.37;;;5.80;;
7683;SDS011;3884;48.616;12.872;2022-07-29T00:23:49;6.80;;;6.20;;
7683;SDS011;3884;48.616;12.872;2022-07-29T00:26:16;6.50;;;5.83;;
7683;SDS011;3884;48.616;12.872;2022-07-29T00:28:43;5.87;;;5.47;;
7683;SDS011;3884;48.616;12.872;2022-07-29T00:31:09;6.70;;;6.00;;
7683;SDS011;3884;48.616;12.872;2022-07-29T00:33:38;6.50;;;5.90;;
7683;SDS011;3884;48.616;12.872;2022-07-29T00:36:05;7.77;;;6.47;;
7683;SDS011;3884;48.616;12.872;2022-07-29T00:38:31;7.20;;;6.60;;
7683;SDS011;3884;48.616;12.872;2022-07-29T00:40:57;7.07;;;6.47;;
7683;SDS011;3884;48.616;12.872;2022-07-29T00:43:24;6.07;;;5.57;;
7683;SDS011;3884;48.616;12.872;2022-07-29T00:45:52;6.60;;;5.90;;
7683;SDS011;3884;48.616;12.872;2022-07-29T00:48:19;6.37;;;5.77;;
7683;SDS011;3884;48.616;12.872;2022-07-29T00:50:47;6.40;;;5.80;;
7683;SDS011;3884;48.616;12.872;2022-07-29T00:53:15;6.40;;;5.90;;
7683;SDS011;3884;48.616;12.872;2022-07-29T00:55:42;6.93;;;6.33;;
7683;SDS011;3884;48.616;12.872;2022-07-29T00:58:09;7.77;;;7.07;;
7683;SDS011;3884;48.616;12.872;2022-07-29T01:00:38;6.50;;;6.00;;
7683;SDS011;3884;48.616;12.872;2022-07-29T01:03:05;6.93;;;6.33;;
7683;SDS011;3884;48.616;12.872;2022-07-29T01:05:32;6.37;;;5.87;;
7683;SDS011;3884;48.616;12.872;2022-07-29T01:08:02;7.30;;;6.70;;
7683;SDS011;3884;48.616;12.872;2022-07-29T01:10:29;7.17;;;6.57;;
7683;SDS011;3884;48.616;12.872;2022-07-29T01:12:57;6.87;;;6.17;;
7683;SDS011;3884;48.616;12.872;2022-07-29T01:15:25;6.80;;;6.20;;
7683;SDS011;3884;48.616;12.872;2022-07-29T01:17:55;6.90;;;6.30;;
7683;SDS011;3884;48.616;12.872;2022-07-29T01:20:30;6.67;;;6.17;;
7683;SDS011;3884;48.616;12.872;2022-07-29T01:23:14;6.23;;;5.63;;
7683;SDS011;3884;48.616;12.872;2022-07-29T01:29:09;6.77;;;6.17;;
7683;SDS011;3884;48.616;12.872;2022-07-29T01:31:42;9.00;;;6.83;;
7683;SDS011;3884;48.616;12.872;2022-07-29T01:34:15;7.87;;;6.70;;
7683;SDS011;3884;48.616;12.872;2022-07-29T01:36:48;7.27;;;6.67;;
7683;SDS011;3884;48.616;12.872;2022-07-29T01:39:18;7.80;;;6.30;;
7683;SDS011;3884;48.616;12.872;2022-07-29T01:41:50;7.10;;;6.40;;
7683;SDS011;3884;48.616;12.872;2022-07-29T01:44:26;6.70;;;6.10;;
7683;SDS011;3884;48.616;12.872;2022-07-29T01:46:58;6.90;;;6.30;;
7683;SDS011;3884;48.616;12.872;2022-07-29T01:49:31;6.60;;;6.10;;
7683;SDS011;3884;48.616;12.872;2022-07-29T01:52:03;6.57;;;5.97;;
7683;SDS011;3884;48.616;12.872;2022-07-29T01:54:35;6.37;;;5.77;;
7683;SDS011;3884;48.616;12.872;2022-07-29T01:57:08;6.93;;;6.23;;
7683;SDS011;3884;48.616;12.872;2022-07-29T01:59:39;6.60;;;6.00;;
7683;SDS011;3884;48.616;12.872;2022-07-29T02:02:08;6.67;;;5.90;;
7683;SDS011;3884;48.616;12.872;2022-07-29T02:04:37;6.57;;;6.07;;
7683;SDS011;3884;48.616;12.872;2022-07-29T02:07:06;6.80;;;6.10;;
7683;SDS011;3884;48.616;12.872;2022-07-29T02:09:35;6.30;;;5.80;;
7683;SDS011;3884;48.616;12.872;2022-07-29T02:12:03;7.03;;;6.00;;
7683;SDS011;3884;48.616;12.872;2022-07-29T02:14:34;6.10;;;5.60;;
7683;SDS011;3884;48.616;12.872;2022-07-29T02:17:05;7.40;;;6.70;;
7683;SDS011;3884;48.616;12.872;2022-07-29T02:19:33;6.90;;;6.03;;
7683;SDS011;3884;48.616;12.872;2022-07-29T02:22:02;6.63;;;6.03;;
7683;SDS011;3884;48.616;12.872;2022-07-29T02:24:31;6.80;;;6.20;;
7683;SDS011;3884;48.616;12.872;2022-07-29T02:27:00;6.33;;;5.77;;
7683;SDS011;3884;48.616;12.872;2022-07-29T02:29:30;7.33;;;6.33;;
7683;SDS011;3884;48.616;12.872;2022-07-29T02:31:58;8.03;;;6.07;;
7683;SDS011;3884;48.616;12.872;2022-07-29T02:34:28;6.60;;;5.67;;
7683;SDS011;3884;48.616;12.872;2022-07-29T02:36:59;6.83;;;6.23;;
7683;SDS011;3884;48.616;12.872;2022-07-29T02:39:26;6.37;;;5.80;;
7683;SDS011;3884;48.616;12.872;2022-07-29T02:41:55;7.03;;;6.37;;
7683;SDS011;3884;48.616;12.872;2022-07-29T02:44:26;6.60;;;5.90;;
7683;SDS011;3884;48.616;12.872;2022-07-29T02:46:55;7.07;;;6.47;;
7683;SDS011;3884;48.616;12.872;2022-07-29T02:49:32;6.77;;;6.17;;
7683;SDS011;3884;48.616;12.872;2022-07-29T02:52:03;7.00;;;6.37;;
7683;SDS011;3884;48.616;12.872;2022-07-29T02:54:34;7.87;;;6.80;;
7683;SDS011;3884;48.616;12.872;2022-07-29T02:57:06;7.40;;;6.50;;
7683;SDS011;3884;48.616;12.872;2022-07-29T02:59:40;7.47;;;6.00;;
7683;SDS011;3884;48.616;12.872;2022-07-29T03:02:09;6.83;;;6.13;;
7683;SDS011;3884;48.616;12.872;2022-07-29T03:04:38;7.90;;;6.23;;
7683;SDS011;3884;48.616;12.872;2022-07-29T03:07:07;7.00;;;6.30;;
7683;SDS011;3884;48.616;12.872;2022-07-29T03:09:35;7.33;;;6.33;;
7683;SDS011;3884;48.616;12.872;2022-07-29T03:12:04;6.97;;;6.37;;
7683;SDS011;3884;48.616;12.872;2022-07-29T03:14:31;6.87;;;6.30;;
7683;SDS011;3884;48.616;12.872;2022-07-29T03:16:58;6.80;;;6.20;;
7683;SDS011;3884;48.616;12.872;2022-07-29T03:19:26;7.63;;;5.70;;
7683;SDS011;3884;48.616;12.872;2022-07-29T03:21:56;6.87;;;6.27;;
7683;SDS011;3884;48.616;12.872;2022-07-29T03:24:27;6.13;;;5.63;;
7683;SDS011;3884;48.616;12.872;2022-07-29T03:26:56;6.90;;;6.20;;
7683;SDS011;3884;48.616;12.872;2022-07-29T03:29:23;6.40;;;5.90;;
7683;SDS011;3884;48.616;12.872;2022-07-29T03:31:51;6.77;;;6.17;;
7683;SDS011;3884;48.616;12.872;2022-07-29T03:34:18;6.20;;;5.60;;
7683;SDS011;3884;48.616;12.872;2022-07-29T03:36:45;6.47;;;5.97;;
7683;SDS011;3884;48.616;12.872;2022-07-29T03:39:14;7.40;;;6.70;;
7683;SDS011;3884;48.616;12.872;2022-07-29T03:41:44;6.67;;;6.07;;
7683;SDS011;3884;48.616;12.872;2022-07-29T03:44:13;6.40;;;5.90;;
7683;SDS011;3884;48.616;12.872;2022-07-29T03:46:43;6.90;;;6.20;;
7683;SDS011;3884;48.616;12.872;2022-07-29T03:49:11;6.93;;;6.23;;
7683;SDS011;3884;48.616;12.872;2022-07-29T03:51:42;7.60;;;6.90;;
7683;SDS011;3884;48.616;12.872;2022-07-29T03:54:09;6.87;;;6.07;;
7683;SDS011;3884;48.616;12.872;2022-07-29T03:56:39;6.93;;;6.13;;
7683;SDS011;3884;48.616;12.872;2022-07-29T03:59:11;6.30;;;5.67;;
7683;SDS011;3884;48.616;12.872;2022-07-29T04:01:38;6.27;;;5.70;;
7683;SDS011;3884;48.616;12.872;2022-07-29T04:04:06;6.03;;;5.43;;
7683;SDS011;3884;48.616;12.872;2022-07-29T04:06:37;6.27;;;5.67;;
7683;SDS011;3884;48.616;12.872;2022-07-29T04:09:05;6.23;;;5.63;;
7683;SDS011;3884;48.616;12.872;2022-07-29T04:11:32;6.40;;;5.80;;
7683;SDS011;3884;48.616;12.872;2022-07-29T04:14:01;6.10;;;5.50;;
7683;SDS011;3884;48.616;12.872;2022-07-29T04:16:28;8.53;;;6.23;;
7683;SDS011;3884;48.616;12.872;2022-07-29T04:18:55;7.00;;;6.40;;
7683;SDS011;3884;48.616;12.872;2022-07-29T04:21:22;6.60;;;6.10;;
7683;SDS011;3884;48.616;12.872;2022-07-29T04:23:49;6.30;;;5.80;;
7683;SDS011;3884;48.616;12.872;2022-07-29T04:26:16;6.40;;;5.90;;
7683;SDS011;3884;48.616;12.872;2022-07-29T04:28:43;5.50;;;5.00;;
7683;SDS011;3884;48.616;12.872;2022-07-29T04:31:12;6.57;;;6.07;;
7683;SDS011;3884;48.616;12.872;2022-07-29T04:33:39;6.20;;;5.70;;
7683;SDS011;3884;48.616;12.872;2022-07-29T04:36:06;6.57;;;5.97;;
7683;SDS011;3884;48.616;12.872;2022-07-29T04:38:33;7.37;;;5.90;;
7683;SDS011;3884;48.616;12.872;2022-07-29T04:41:00;6.83;;;6.20;;
7683;SDS011;3884;48.616;12.872;2022-07-29T04:43:26;5.50;;;5.10;;
7683;SDS011;3884;48.616;12.872;2022-07-29T04:45:53;5.40;;;4.90;;
7683;SDS011;3884;48.616;12.872;2022-07-29T04:48:22;5.57;;;5.10;;
7683;SDS011;3884;48.616;12.872;2022-07-29T04:50:49;7.73;;;5.80;;
7683;SDS011;3884;48.616;12.872;2022-07-29T04:53:16;7.30;;;5.03;;
7683;SDS011;3884;48.616;12.872;2022-07-29T04:55:42;5.40;;;4.93;;
7683;SDS011;3884;48.616;12.872;2022-07-29T04:58:09;5.50;;;5.00;;
7683;SDS011;3884;48.616;12.872;2022-07-29T05:00:36;10.50;;;5.33;;
7683;SDS011;3884;48.616;12.872;2022-07-29T05:03:03;5.90;;;5.00;;
7683;SDS011;3884;48.616;12.872;2022-07-29T05:05:32;5.47;;;5.03;;
7683;SDS011;3884;48.616;12.872;2022-07-29T05:07:58;5.07;;;4.57;;
7683;SDS011;3884;48.616;12.872;2022-07-29T05:10:26;5.73;;;5.23;;
7683;SDS011;3884;48.616;12.872;2022-07-29T05:12:53;6.20;;;5.70;;
7683;SDS011;3884;48.616;12.872;2022-07-29T05:15:20;6.57;;;5.30;;
7683;SDS011;3884;48.616;12.872;2022-07-29T05:17:47;5.33;;;4.83;;
7683;SDS011;3884;48.616;12.872;2022-07-29T05:20:14;4.57;;;4.17;;
7683;SDS011;3884;48.616;12.872;2022-07-29T05:22:42;4.83;;;4.27;;
7683;SDS011;3884;48.616;12.872;2022-07-29T05:25:09;6.20;;;4.53;;
7683;SDS011;3884;48.616;12.872;2022-07-29T05:27:36;4.67;;;4.10;;
7683;SDS011;3884;48.616;12.872;2022-07-29T05:30:03;5.47;;;5.00;;
7683;SDS011;3884;48.616;12.872;2022-07-29T05:32:30;7.53;;;4.90;;
7683;SDS011;3884;48.616;12.872;2022-07-29T05:34:57;4.87;;;4.47;;
7683;SDS011;3884;48.616;12.872;2022-07-29T05:37:24;5.90;;;4.40;;
7683;SDS011;3884;48.616;12.872;2022-07-29T05:39:52;5.80;;;4.40;;
7683;SDS011;3884;48.616;12.872;2022-07-29T05:42:19;5.43;;;4.70;;
7683;SDS011;3884;48.616;12.872;2022-07-29T05:44:46;4.80;;;4.40;;
7683;SDS011;3884;48.616;12.872;2022-07-29T05:47:13;4.30;;;3.90;;
7683;SDS011;3884;48.616;12.872;2022-07-29T05:49:41;4.57;;;4.17;;
7683;SDS011;3884;48.616;12.872;2022-07-29T05:52:07;8.00;;;4.40;;
7683;SDS011;3884;48.616;12.872;2022-07-29T05:54:35;4.27;;;3.73;;
7683;SDS011;3884;48.616;12.872;2022-07-29T05:57:03;5.73;;;4.17;;
7683;SDS011;3884;48.616;12.872;2022-07-29T05:59:30;4.60;;;4.20;;
7683;SDS011;3884;48.616;12.872;2022-07-29T06:01:57;4.23;;;3.80;;
7683;SDS011;3884;48.616;12.872;2022-07-29T06:04:24;4.73;;;4.03;;
7683;SDS011;3884;48.616;12.872;2022-07-29T06:06:51;4.37;;;3.97;;
7683;SDS011;3884;48.616;12.872;2022-07-29T06:09:18;4.10;;;3.80;;
7683;SDS011;3884;48.616;12.872;2022-07-29T06:11:45;4.07;;;3.67;;
7683;SDS011;3884;48.616;12.872;2022-07-29T06:14:13;4.50;;;3.87;;
7683;SDS011;3884;48.616;12.872;2022-07-29T06:16:40;3.83;;;3.53;;
7683;SDS011;3884;48.616;12.872;2022-07-29T06:19:08;3.30;;;3.10;;
7683;SDS011;3884;48.616;12.872;2022-07-29T06:21:35;3.53;;;3.23;;
7683;SDS011;3884;48.616;12.872;2022-07-29T06:24:02;3.40;;;3.10;;
7683;SDS011;3884;48.616;12.872;2022-07-29T06:26:29;3.67;;;2.93;;
7683;SDS011;3884;48.616;12.872;2022-07-29T06:28:55;4.47;;;3.10;;
7683;SDS011;3884;48.616;12.872;2022-07-29T06:31:24;3.17;;;2.87;;
7683;SDS011;3884;48.616;12.872;2022-07-29T06:33:50;2.80;;;2.60;;
7683;SDS011;3884;48.616;12.872;2022-07-29T06:36:18;3.13;;;2.90;;
7683;SDS011;3884;48.616;12.872;2022-07-29T06:38:44;3.10;;;2.80;;
7683;SDS011;3884;48.616;12.872;2022-07-29T06:41:11;2.97;;;2.77;;
7683;SDS011;3884;48.616;12.872;2022-07-29T06:43:41;3.20;;;2.67;;
7683;SDS011;3884;48.616;12.872;2022-07-29T06:46:11;4.10;;;2.77;;
7683;SDS011;3884;48.616;12.872;2022-07-29T06:48:41;5.20;;;2.80;;
7683;SDS011;3884;48.616;12.872;2022-07-29T06:51:08;3.60;;;2.67;;
7683;SDS011;3884;48.616;12.872;2022-07-29T06:53:36;4.10;;;2.63;;
7683;SDS011;3884;48.616;12.872;2022-07-29T06:56:05;3.63;;;2.80;;
7683;SDS011;3884;48.616;12.872;2022-07-29T06:58:33;2.90;;;2.60;;
7683;SDS011;3884;48.616;12.872;2022-07-29T07:01:01;6.37;;;2.80;;
7683;SDS011;3884;48.616;12.872;2022-07-29T07:03:30;3.77;;;2.90;;
7683;SDS011;3884;48.616;12.872;2022-07-29T07:05:58;2.97;;;2.77;;
7683;SDS011;3884;48.616;12.872;2022-07-29T07:08:25;3.10;;;2.80;;
7683;SDS011;3884;48.616;12.872;2022-07-29T07:10:53;2.83;;;2.60;;
7683;SDS011;3884;48.616;12.872;2022-07-29T07:13:20;3.23;;;2.37;;
7683;SDS011;3884;48.616;12.872;2022-07-29T07:15:47;4.83;;;2.63;;
7683;SDS011;3884;48.616;12.872;2022-07-29T07:18:14;3.23;;;2.60;;
7683;SDS011;3884;48.616;12.872;2022-07-29T07:20:42;3.37;;;2.40;;
7683;SDS011;3884;48.616;12.872;2022-07-29T07:23:11;2.40;;;2.20;;
7683;SDS011;3884;48.616;12.872;2022-07-29T07:25:37;3.77;;;2.40;;
7683;SDS011;3884;48.616;12.872;2022-07-29T07:28:04;2.67;;;2.47;;
7683;SDS011;3884;48.616;12.872;2022-07-29T07:30:31;3.40;;;2.40;;
7683;SDS011;3884;48.616;12.872;2022-07-29T07:32:59;4.10;;;2.33;;
7683;SDS011;3884;48.616;12.872;2022-07-29T07:35:26;2.63;;;2.40;;
7683;SDS011;3884;48.616;12.872;2022-07-29T07:37:53;3.40;;;2.20;;
7683;SDS011;3884;48.616;12.872;2022-07-29T07:40:22;3.10;;;2.37;;
7683;SDS011;3884;48.616;12.872;2022-07-29T07:42:49;2.97;;;2.50;;
7683;SDS011;3884;48.616;12.872;2022-07-29T07:45:16;2.83;;;2.50;;
7683;SDS011;3884;48.616;12.872;2022-07-29T07:47:43;3.57;;;2.80;;
7683;SDS011;3884;48.616;12.872;2022-07-29T07:50:10;3.33;;;2.67;;
7683;SDS011;3884;48.616;12.872;2022-07-29T07:52:45;2.90;;;2.53;;
7683;SDS011;3884;48.616;12.872;2022-07-29T07:55:14;3.00;;;2.43;;
7683;SDS011;3884;48.616;12.872;2022-07-29T07:57:42;3.80;;;2.70;;
7683;SDS011;3884;48.616;12.872;2022-07-29T08:00:09;2.90;;;2.70;;
7683;SDS011;3884;48.616;12.872;2022-07-29T08:02:38;3.03;;;2.03;;
7683;SDS011;3884;48.616;12.872;2022-07-29T08:05:05;3.20;;;2.40;;
7683;SDS011;3884;48.616;12.872;2022-07-29T08:07:33;3.30;;;2.20;;
7683;SDS011;3884;48.616;12.872;2022-07-29T08:09:59;3.07;;;2.40;;
7683;SDS011;3884;48.616;12.872;2022-07-29T08:12:26;2.50;;;2.30;;
7683;SDS011;3884;48.616;12.872;2022-07-29T08:14:55;3.00;;;2.80;;
7683;SDS011;3884;48.616;12.872;2022-07-29T08:17:21;2.10;;;1.90;;
7683;SDS011;3884;48.616;12.872;2022-07-29T08:19:48;2.53;;;2.30;;
7683;SDS011;3884;48.616;12.872;2022-07-29T08:22:15;2.40;;;2.20;;
7683;SDS011;3884;48.616;12.872;2022-07-29T08:24:42;2.50;;;2.30;;
7683;SDS011;3884;48.616;12.872;2022-07-29T08:27:11;3.20;;;2.30;;
7683;SDS011;3884;48.616;12.872;2022-07-29T08:29:39;2.20;;;2.00;;
7683;SDS011;3884;48.616;12.872;2022-07-29T08:32:07;3.03;;;2.20;;
7683;SDS011;3884;48.616;12.872;2022-07-29T08:34:34;3.53;;;2.43;;
7683;SDS011;3884;48.616;12.872;2022-07-29T08:37:01;2.80;;;2.20;;
7683;SDS011;3884;48.616;12.872;2022-07-29T08:39:28;1.93;;;1.83;;
7683;SDS011;3884;48.616;12.872;2022-07-29T08:41:55;2.50;;;2.30;;
7683;SDS011;3884;48.616;12.872;2022-07-29T08:44:22;2.33;;;2.13;;
7683;SDS011;3884;48.616;12.872;2022-07-29T08:46:50;3.20;;;1.97;;
7683;SDS011;3884;48.616;12.872;2022-07-29T08:49:18;2.87;;;2.23;;
7683;SDS011;3884;48.616;12.872;2022-07-29T08:51:45;2.40;;;2.20;;
7683;SDS011;3884;48.616;12.872;2022-07-29T08:54:17;2.90;;;2.13;;
7683;SDS011;3884;48.616;12.872;2022-07-29T08:56:45;2.30;;;2.10;;
7683;SDS011;3884;48.616;12.872;2022-07-29T08:59:15;2.53;;;2.10;;
7683;SDS011;3884;48.616;12.872;2022-07-29T09:01:45;2.23;;;2.03;;
7683;SDS011;3884;48.616;12.872;2022-07-29T09:04:14;2.83;;;2.00;;
7683;SDS011;3884;48.616;12.872;2022-07-29T09:06:45;2.43;;;2.23;;
7683;SDS011;3884;48.616;12.872;2022-07-29T09:09:13;2.60;;;2.40;;
7683;SDS011;3884;48.616;12.872;2022-07-29T09:11:41;2.17;;;1.80;;
7683;SDS011;3884;48.616;12.872;2022-07-29T09:14:08;2.40;;;2.20;;
7683;SDS011;3884;48.616;12.872;2022-07-29T09:16:52;2.90;;;2.00;;
7683;SDS011;3884;48.616;12.872;2022-07-29T09:19:20;2.10;;;1.97;;
7683;SDS011;3884;48.616;12.872;2022-07-29T09:21:50;2.17;;;2.07;;
7683;SDS011;3884;48.616;12.872;2022-07-29T09:24:27;2.50;;;2.10;;
7683;SDS011;3884;48.616;12.872;2022-07-29T09:27:06;2.53;;;2.10;;
7683;SDS011;3884;48.616;12.872;2022-07-29T09:29:36;2.30;;;2.10;;
7683;SDS011;3884;48.616;12.872;2022-07-29T09:32:05;2.40;;;2.20;;
7683;SDS011;3884;48.616;12.872;2022-07-29T09:34:34;2.33;;;2.13;;
7683;SDS011;3884;48.616;12.872;2022-07-29T09:37:03;2.00;;;1.90;;
7683;SDS011;3884;48.616;12.872;2022-07-29T09:39:31;3.67;;;2.10;;
7683;SDS011;3884;48.616;12.872;2022-07-29T09:41:59;2.87;;;2.30;;
7683;SDS011;3884;48.616;12.872;2022-07-29T09:44:40;2.47;;;2.27;;
7683;SDS011;3884;48.616;12.872;2022-07-29T09:47:08;3.20;;;2.20;;
7683;SDS011;3884;48.616;12.872;2022-07-29T09:49:35;3.83;;;2.20;;
7683;SDS011;3884;48.616;12.872;2022-07-29T09:52:17;2.90;;;2.20;;
7683;SDS011;3884;48.616;12.872;2022-07-29T09:54:44;2.50;;;2.30;;
7683;SDS011;3884;48.616;12.872;2022-07-29T09:57:22;3.00;;;2.17;;
7683;SDS011;3884;48.616;12.872;2022-07-29T09:59:57;2.47;;;2.27;;
7683;SDS011;3884;48.616;12.872;2022-07-29T10:02:28;4.17;;;2.30;;
7683;SDS011;3884;48.616;12.872;2022-07-29T10:04:57;2.53;;;2.33;;
7683;SDS011;3884;48.616;12.872;2022-07-29T10:07:25;3.40;;;2.13;;
7683;SDS011;3884;48.616;12.872;2022-07-29T10:10:08;2.50;;;2.20;;
7683;SDS011;3884;48.616;12.872;2022-07-29T10:12:38;2.23;;;2.03;;
7683;SDS011;3884;48.616;12.872;2022-07-29T10:15:15;3.43;;;2.63;;
7683;SDS011;3884;48.616;12.872;2022-07-29T10:17:43;2.23;;;2.03;;
7683;SDS011;3884;48.616;12.872;2022-07-29T10:20:11;2.87;;;2.33;;
7683;SDS011;3884;48.616;12.872;2022-07-29T10:22:39;3.10;;;2.20;;
7683;SDS011;3884;48.616;12.872;2022-07-29T10:25:07;3.10;;;2.40;;
7683;SDS011;3884;48.616;12.872;2022-07-29T10:27:35;2.53;;;2.33;;
7683;SDS011;3884;48.616;12.872;2022-07-29T10:30:02;4.93;;;2.60;;
7683;SDS011;3884;48.616;12.872;2022-07-29T10:35:28;2.60;;;2.40;;
7683;SDS011;3884;48.616;12.872;2022-07-29T10:38:10;2.57;;;2.37;;
7683;SDS011;3884;48.616;12.872;2022-07-29T10:40:54;2.30;;;2.10;;
7683;SDS011;3884;48.616;12.872;2022-07-29T10:43:49;3.20;;;2.20;;
7683;SDS011;3884;48.616;12.872;2022-07-29T10:46:19;2.20;;;2.00;;
7683;SDS011;3884;48.616;12.872;2022-07-29T10:51:58;3.00;;;2.17;;
7683;SDS011;3884;48.616;12.872;2022-07-29T10:57:25;2.30;;;2.10;;
7683;SDS011;3884;48.616;12.872;2022-07-29T11:02:57;3.47;;;2.43;;
7683;SDS011;3884;48.616;12.872;2022-07-29T11:05:26;4.17;;;2.47;;
7683;SDS011;3884;48.616;12.872;2022-07-29T11:10:52;4.57;;;2.40;;
7683;SDS011;3884;48.616;12.872;2022-07-29T11:13:44;2.47;;;2.27;;
7683;SDS011;3884;48.616;12.872;2022-07-29T11:16:12;2.90;;;2.43;;
7683;SDS011;3884;48.616;12.872;2022-07-29T11:21:43;5.37;;;2.57;;
7683;SDS011;3884;48.616;12.872;2022-07-29T11:24:12;2.53;;;2.20;;
7683;SDS011;3884;48.616;12.872;2022-07-29T11:26:41;2.53;;;2.33;;
7683;SDS011;3884;48.616;12.872;2022-07-29T11:29:14;2.70;;;2.10;;
7683;SDS011;3884;48.616;12.872;2022-07-29T11:31:45;4.03;;;2.23;;
7683;SDS011;3884;48.616;12.872;2022-07-29T11:34:19;3.00;;;2.30;;
7683;SDS011;3884;48.616;12.872;2022-07-29T11:39:41;2.73;;;2.47;;
7683;SDS011;3884;48.616;12.872;2022-07-29T11:45:09;2.73;;;2.47;;
7683;SDS011;3884;48.616;12.872;2022-07-29T11:47:39;3.30;;;2.40;;
7683;SDS011;3884;48.616;12.872;2022-07-29T11:50:07;2.23;;;2.10;;
7683;SDS011;3884;48.616;12.872;2022-07-29T11:52:36;3.40;;;2.53;;
7683;SDS011;3884;48.616;12.872;2022-07-29T11:55:10;2.70;;;2.50;;
7683;SDS011;3884;48.616;12.872;2022-07-29T11:57:46;2.60;;;2.40;;
7683;SDS011;3884;48.616;12.872;2022-07-29T12:00:20;2.70;;;2.50;;
7683;SDS011;3884;48.616;12.872;2022-07-29T12:02:52;2.47;;;2.27;;
7683;SDS011;3884;48.616;12.872;2022-07-29T12:05:20;2.47;;;2.30;;
7683;SDS011;3884;48.616;12.872;2022-07-29T12:07:47;2.90;;;2.57;;
7683;SDS011;3884;48.616;12.872;2022-07-29T12:10:15;2.67;;;2.47;;
7683;SDS011;3884;48.616;12.872;2022-07-29T12:12:41;2.10;;;2.00;;
7683;SDS011;3884;48.616;12.872;2022-07-29T12:15:14;3.30;;;2.50;;
7683;SDS011;3884;48.616;12.872;2022-07-29T12:17:45;2.40;;;2.20;;
7683;SDS011;3884;48.616;12.872;2022-07-29T12:20:12;3.80;;;2.10;;
7683;SDS011;3884;48.616;12.872;2022-07-29T12:22:42;3.27;;;2.40;;
7683;SDS011;3884;48.616;12.872;2022-07-29T12:25:10;3.90;;;2.43;;
7683;SDS011;3884;48.616;12.872;2022-07-29T12:27:39;2.40;;;2.20;;
7683;SDS011;3884;48.616;12.872;2022-07-29T12:30:08;3.97;;;2.33;;
7683;SDS011;3884;48.616;12.872;2022-07-29T12:32:40;2.50;;;2.30;;
7683;SDS011;3884;48.616;12.872;2022-07-29T12:35:10;2.53;;;2.30;;
7683;SDS011;3884;48.616;12.872;2022-07-29T12:37:39;2.30;;;2.10;;
7683;SDS011;3884;48.616;12.872;2022-07-29T12:40:08;2.80;;;2.27;;
7683;SDS011;3884;48.616;12.872;2022-07-29T12:42:37;2.77;;;2.07;;
7683;SDS011;3884;48.616;12.872;2022-07-29T12:45:05;2.83;;;2.40;;
7683;SDS011;3884;48.616;12.872;2022-07-29T12:47:33;1.90;;;1.80;;
7683;SDS011;3884;48.616;12.872;2022-07-29T12:50:18;2.10;;;1.90;;
7683;SDS011;3884;48.616;12.872;2022-07-29T12:52:45;2.30;;;2.10;;
7683;SDS011;3884;48.616;12.872;2022-07-29T12:55:12;3.03;;;2.00;;
7683;SDS011;3884;48.616;12.872;2022-07-29T12:57:45;2.00;;;1.90;;
7683;SDS011;3884;48.616;12.872;2022-07-29T13:00:13;2.20;;;2.00;;
7683;SDS011;3884;48.616;12.872;2022-07-29T13:02:41;2.43;;;2.20;;
7683;SDS011;3884;48.616;12.872;2022-07-29T13:05:09;2.33;;;2.13;;
7683;SDS011;3884;48.616;12.872;2022-07-29T13:07:39;1.90;;;1.80;;
7683;SDS011;3884;48.616;12.872;2022-07-29T13:10:10;4.63;;;2.10;;
7683;SDS011;3884;48.616;12.872;2022-07-29T13:15:31;5.17;;;2.30;;
7683;SDS011;3884;48.616;12.872;2022-07-29T13:17:58;4.00;;;2.43;;
7683;SDS011;3884;48.616;12.872;2022-07-29T13:20:26;3.10;;;2.17;;
7683;SDS011;3884;48.616;12.872;2022-07-29T13:22:57;2.60;;;2.40;;
7683;SDS011;3884;48.616;12.872;2022-07-29T13:25:25;2.40;;;2.20;;
7683;SDS011;3884;48.616;12.872;2022-07-29T13:27:53;2.43;;;2.20;;
7683;SDS011;3884;48.616;12.872;2022-07-29T13:30:21;3.53;;;2.30;;
7683;SDS011;3884;48.616;12.872;2022-07-29T13:32:49;2.90;;;2.20;;
7683;SDS011;3884;48.616;12.872;2022-07-29T13:35:16;2.57;;;2.37;;
7683;SDS011;3884;48.616;12.872;2022-07-29T13:37:43;2.40;;;2.20;;
7683;SDS011;3884;48.616;12.872;2022-07-29T13:40:12;3.57;;;2.30;;
7683;SDS011;3884;48.616;12.872;2022-07-29T13:42:40;5.23;;;2.20;;
7683;SDS011;3884;48.616;12.872;2022-07-29T13:45:08;3.60;;;2.40;;
7683;SDS011;3884;48.616;12.872;2022-07-29T13:47:36;2.97;;;2.27;;
7683;SDS011;3884;48.616;12.872;2022-07-29T13:50:04;3.20;;;2.20;;
7683;SDS011;3884;48.616;12.872;2022-07-29T13:52:32;2.77;;;2.27;;
7683;SDS011;3884;48.616;12.872;2022-07-29T13:54:59;6.00;;;2.40;;
7683;SDS011;3884;48.616;12.872;2022-07-29T13:57:28;3.27;;;2.20;;
7683;SDS011;3884;48.616;12.872;2022-07-29T13:59:55;4.03;;;2.23;;
7683;SDS011;3884;48.616;12.872;2022-07-29T14:02:22;2.93;;;2.50;;
7683;SDS011;3884;48.616;12.872;2022-07-29T14:04:49;2.70;;;2.50;;
7683;SDS011;3884;48.616;12.872;2022-07-29T14:07:16;3.60;;;2.30;;
7683;SDS011;3884;48.616;12.872;2022-07-29T14:09:43;3.53;;;2.37;;
7683;SDS011;3884;48.616;12.872;2022-07-29T14:12:10;2.97;;;2.40;;
7683;SDS011;3884;48.616;12.872;2022-07-29T14:14:38;3.13;;;2.30;;
7683;SDS011;3884;48.616;12.872;2022-07-29T14:17:06;2.63;;;2.40;;
7683;SDS011;3884;48.616;12.872;2022-07-29T14:19:33;6.30;;;2.60;;
7683;SDS011;3884;48.616;12.872;2022-07-29T14:22:02;2.40;;;2.20;;
7683;SDS011;3884;48.616;12.872;2022-07-29T14:24:29;2.40;;;2.20;;
7683;SDS011;3884;48.616;12.872;2022-07-29T14:26:57;3.43;;;2.53;;
7683;SDS011;3884;48.616;12.872;2022-07-29T14:29:24;2.63;;;2.37;;
7683;SDS011;3884;48.616;12.872;2022-07-29T14:31:52;5.03;;;2.40;;
7683;SDS011;3884;48.616;12.872;2022-07-29T14:34:19;3.07;;;2.37;;
7683;SDS011;3884;48.616;12.872;2022-07-29T14:36:46;2.83;;;2.50;;
7683;SDS011;3884;48.616;12.872;2022-07-29T14:39:13;2.60;;;2.40;;
7683;SDS011;3884;48.616;12.872;2022-07-29T14:41:40;3.93;;;2.50;;
7683;SDS011;3884;48.616;12.872;2022-07-29T14:44:07;3.60;;;2.87;;
7683;SDS011;3884;48.616;12.872;2022-07-29T14:46:34;2.23;;;2.03;;
7683;SDS011;3884;48.616;12.872;2022-07-29T14:49:03;6.20;;;2.70;;
7683;SDS011;3884;48.616;12.872;2022-07-29T14:51:30;7.50;;;2.60;;
7683;SDS011;3884;48.616;12.872;2022-07-29T14:53:57;4.80;;;2.40;;
7683;SDS011;3884;48.616;12.872;2022-07-29T14:56:24;3.47;;;2.50;;
7683;SDS011;3884;48.616;12.872;2022-07-29T14:58:52;3.77;;;2.77;;
7683;SDS011;3884;48.616;12.872;2022-07-29T15:01:19;3.97;;;2.50;;
7683;SDS011;3884;48.616;12.872;2022-07-29T15:03:45;3.80;;;2.53;;
7683;SDS011;3884;48.616;12.872;2022-07-29T15:06:14;2.70;;;2.27;;
7683;SDS011;3884;48.616;12.872;2022-07-29T15:08:41;3.53;;;2.57;;
7683;SDS011;3884;48.616;12.872;2022-07-29T15:11:08;2.20;;;2.10;;
7683;SDS011;3884;48.616;12.872;2022-07-29T15:13:34;3.40;;;2.23;;
7683;SDS011;3884;48.616;12.872;2022-07-29T15:16:02;3.23;;;2.40;;
7683;SDS011;3884;48.616;12.872;2022-07-29T15:18:30;2.93;;;2.30;;
7683;SDS011;3884;48.616;12.872;2022-07-29T15:20:57;4.60;;;2.50;;
7683;SDS011;3884;48.616;12.872;2022-07-29T15:23:26;6.53;;;2.47;;
7683;SDS011;3884;48.616;12.872;2022-07-29T15:25:53;4.47;;;2.70;;
7683;SDS011;3884;48.616;12.872;2022-07-29T15:28:20;3.63;;;2.30;;
7683;SDS011;3884;48.616;12.872;2022-07-29T15:30:47;3.53;;;2.23;;
7683;SDS011;3884;48.616;12.872;2022-07-29T15:33:14;2.50;;;2.30;;
7683;SDS011;3884;48.616;12.872;2022-07-29T15:35:41;2.50;;;2.30;;
7683;SDS011;3884;48.616;12.872;2022-07-29T15:38:08;2.67;;;2.40;;
7683;SDS011;3884;48.616;12.872;2022-07-29T15:40:37;3.00;;;2.20;;